Time;durP1;ratioP1;P1;durP2;ratioP2;P2;SDS_P1;SDS_P2;PMS_P1;PMS_P2;Temp;Humidity;BMP_temperature;BMP_pressure;BME280_temperature;BME280_humidity;BME280_pressure;Samples;Min_cycle;Max_cycle;Signal;HPM_P1;HPM_P2
2021/06/16 00:00:17;;;;;;;6.68;3.03;;;;;;;16.92;72.91;98775.09;4995793;28;20037;-69
2021/06/16 00:02:43;;;;;;;3.00;2.42;;;;;;;17.09;72.13;98778.69;4995797;28;20528;-69
2021/06/16 00:05:11;;;;;;;5.05;2.90;;;;;;;17.03;72.02;98774.22;4994219;28;20034;-69
2021/06/16 00:07:36;;;;;;;6.90;3.20;;;;;;;16.72;72.24;98745.47;4995253;28;20105;-69
2021/06/16 00:10:04;;;;;;;4.13;2.63;;;;;;;16.79;72.11;98771.59;4995384;28;20066;-69
2021/06/16 00:12:30;;;;;;;4.35;2.47;;;;;;;16.76;72.48;98769.31;4992077;28;20134;-69
2021/06/16 00:14:55;;;;;;;3.88;2.55;;;;;;;16.72;72.87;98767.31;4992358;28;20113;-68
2021/06/16 00:17:20;;;;;;;3.97;2.50;;;;;;;16.73;72.75;98758.88;4994097;28;20335;-70
2021/06/16 00:19:46;;;;;;;5.43;2.70;;;;;;;16.88;72.38;98765.75;4994851;28;20034;-68
2021/06/16 00:22:11;;;;;;;6.28;3.20;;;;;;;16.90;72.32;98769.88;4992886;28;20038;-68
2021/06/16 00:24:37;;;;;;;4.28;3.22;;;;;;;17.00;71.99;98763.75;4994228;28;20026;-68
2021/06/16 00:27:03;;;;;;;13.70;3.88;;;;;;;16.96;71.83;98773.53;4994606;28;20022;-68
2021/06/16 00:29:28;;;;;;;6.68;3.67;;;;;;;16.77;72.09;98751.88;4995259;28;20026;-68
2021/06/16 00:31:54;;;;;;;7.20;3.70;;;;;;;16.80;72.11;98762.31;4993906;28;20484;-69
2021/06/16 00:34:19;;;;;;;8.95;3.50;;;;;;;16.81;72.54;98755.75;4994393;28;20058;-67
2021/06/16 00:36:45;;;;;;;8.18;3.20;;;;;;;16.73;71.67;98763.50;4994923;28;20026;-69
2021/06/16 00:39:11;;;;;;;4.45;3.42;;;;;;;16.69;72.88;98759.59;4995244;28;20472;-67
2021/06/16 00:41:37;;;;;;;7.32;4.25;;;;;;;16.46;73.05;98739.50;4990272;28;20472;-67
2021/06/16 00:44:04;;;;;;;9.27;4.03;;;;;;;16.59;73.89;98768.44;4987676;28;20065;-67
2021/06/16 00:46:29;;;;;;;5.57;2.63;;;;;;;16.58;73.48;98772.22;4994663;28;20403;-68
2021/06/16 00:48:54;;;;;;;7.93;2.40;;;;;;;16.48;73.39;98764.69;4992593;28;20034;-69
2021/06/16 00:51:20;;;;;;;3.95;2.60;;;;;;;16.37;73.75;98766.38;4993624;28;20029;-67
2021/06/16 00:53:45;;;;;;;3.72;2.55;;;;;;;16.34;73.72;98750.47;4994704;28;20018;-67
2021/06/16 00:56:10;;;;;;;8.43;2.58;;;;;;;16.35;73.83;98754.03;4994029;28;20038;-68
2021/06/16 00:58:36;;;;;;;5.82;2.40;;;;;;;16.18;74.26;98760.22;4993985;28;20026;-68
2021/06/16 01:01:11;;;;;;;4.57;2.58;;;;;;;16.12;75.12;98758.47;4993274;28;20030;-68
2021/06/16 01:04:06;;;;;;;4.88;2.88;;;;;;;16.06;75.36;98764.06;4993860;28;20038;-68
2021/06/16 01:06:38;;;;;;;3.85;2.60;;;;;;;15.99;76.02;98767.75;4986647;28;20121;-68
2021/06/16 01:09:14;;;;;;;4.82;3.08;;;;;;;15.90;76.04;98766.47;4994543;28;20069;-68
2021/06/16 01:11:53;;;;;;;3.95;2.53;;;;;;;15.96;75.70;98770.13;4988169;28;20085;-68
2021/06/16 01:14:21;;;;;;;;;;;;;;;15.87;75.26;98772.38;4992519;28;20026;-67
2021/06/16 01:16:54;;;;;;;5.72;2.90;;;;;;;15.95;75.34;98761.09;4994288;28;20516;-68
2021/06/16 01:19:25;;;;;;;4.65;3.03;;;;;;;15.97;75.22;98767.16;4994367;28;20061;-68
2021/06/16 01:21:59;;;;;;;4.07;2.70;;;;;;;15.98;74.85;98774.28;4993834;28;20117;-68
2021/06/16 01:24:28;;;;;;;6.82;2.83;;;;;;;15.95;74.99;98774.75;4993951;28;20034;-68
2021/06/16 01:26:55;;;;;;;5.68;2.50;;;;;;;15.82;75.08;98744.16;4992996;28;20030;-67
2021/06/16 01:29:34;;;;;;;5.88;2.63;;;;;;;15.97;76.07;98772.63;4993937;28;20053;-67
2021/06/16 01:32:00;;;;;;;;;;;;;;;16.02;75.71;98769.16;4993211;28;20026;-68
2021/06/16 01:34:26;;;;;;;3.45;2.40;;;;;;;16.03;75.00;98764.53;4993369;28;19917;-68
2021/06/16 01:36:53;;;;;;;5.57;2.50;;;;;;;15.96;75.15;98772.88;4994128;28;20037;-68
2021/06/16 01:39:22;;;;;;;5.28;2.80;;;;;;;15.90;75.36;98780.13;4993550;28;20058;-67
2021/06/16 01:41:51;;;;;;;2.75;2.22;;;;;;;15.84;75.78;98777.50;4992683;28;20408;-67
2021/06/16 01:44:17;;;;;;;4.20;2.75;;;;;;;15.81;75.80;98770.63;4992854;28;20085;-68
2021/06/16 01:46:44;;;;;;;4.70;3.03;;;;;;;15.78;75.87;98763.75;4993809;28;20560;-67
2021/06/16 01:49:11;;;;;;;4.43;3.03;;;;;;;15.79;75.67;98767.28;4993043;28;20034;-67
2021/06/16 01:51:39;;;;;;;4.75;3.00;;;;;;;15.86;75.75;98762.53;4990227;28;20022;-67
2021/06/16 01:54:07;;;;;;;5.35;3.00;;;;;;;15.83;75.59;98760.31;4990996;28;20117;-73
2021/06/16 01:56:35;;;;;;;6.00;3.10;;;;;;;16.01;75.77;98764.78;4993815;28;20026;-68
2021/06/16 01:59:01;;;;;;;7.93;2.83;;;;;;;15.94;76.03;98759.44;4993178;28;20030;-67
2021/06/16 02:01:27;;;;;;;5.78;3.10;;;;;;;15.87;76.02;98766.09;4992516;28;20023;-68
2021/06/16 02:03:53;;;;;;;5.97;2.50;;;;;;;15.80;76.43;98763.50;4993152;28;20029;-67
2021/06/16 02:06:23;;;;;;;3.58;2.67;;;;;;;15.83;76.33;98760.31;4992695;28;20424;-67
2021/06/16 02:08:50;;;;;;;5.45;2.67;;;;;;;15.85;75.80;98749.13;4991927;28;20041;-68
2021/06/16 02:11:20;;;;;;;4.63;2.70;;;;;;;15.77;76.52;98751.19;4992210;28;20481;-67
2021/06/16 02:13:56;;;;;;;4.63;2.95;;;;;;;15.83;76.08;98759.47;4991347;28;20033;-67
2021/06/16 02:16:46;;;;;;;5.50;2.90;;;;;;;15.79;76.36;98756.38;4992671;28;20033;-67
2021/06/16 02:19:14;;;;;;;5.88;3.42;;;;;;;15.76;76.86;98760.41;4993315;28;20022;-67
2021/06/16 02:21:40;;;;;;;5.03;2.60;;;;;;;15.84;76.51;98745.59;4990860;28;20038;-67
2021/06/16 02:24:08;;;;;;;5.65;2.80;;;;;;;15.86;76.77;98743.44;4991487;28;20037;-67
2021/06/16 02:26:33;;;;;;;4.70;2.67;;;;;;;15.91;76.57;98753.66;4992836;28;20522;-67
2021/06/16 02:28:59;;;;;;;6.10;3.35;;;;;;;15.96;76.01;98743.69;4992316;28;20109;-67
2021/06/16 02:31:24;;;;;;;4.75;3.47;;;;;;;15.97;76.00;98734.41;4991701;28;20030;-67
2021/06/16 02:33:51;;;;;;;5.10;3.42;;;;;;;15.67;76.22;98709.19;4992746;28;20105;-67
2021/06/16 02:36:18;;;;;;;6.15;3.50;;;;;;;15.72;76.48;98742.06;4992692;28;20027;-67
2021/06/16 02:38:45;;;;;;;6.00;3.80;;;;;;;15.61;76.78;98738.22;4992802;28;20030;-67
2021/06/16 02:41:14;;;;;;;5.47;3.55;;;;;;;15.40;77.32;98717.00;4991238;28;20015;-68
2021/06/16 02:43:40;;;;;;;7.47;3.63;;;;;;;15.44;77.35;98738.09;4991977;28;20069;-66
2021/06/16 02:46:09;;;;;;;8.20;3.95;;;;;;;15.45;77.81;98731.56;4992554;28;20038;-67
2021/06/16 02:48:35;;;;;;;6.72;3.85;;;;;;;15.46;77.66;98732.44;4992238;28;20232;-67
2021/06/16 02:51:01;;;;;;;7.43;4.13;;;;;;;15.48;77.49;98739.31;4990249;28;20077;-67
2021/06/16 02:53:28;;;;;;;5.63;3.70;;;;;;;15.45;77.14;98734.28;4991602;28;20069;-67
2021/06/16 02:56:03;;;;;;;4.18;3.17;;;;;;;15.32;76.54;98726.34;4992118;28;20049;-67
2021/06/16 02:58:33;;;;;;;5.68;2.97;;;;;;;15.00;77.68;98704.03;4992463;28;20540;-67
2021/06/16 03:01:01;;;;;;;6.30;2.83;;;;;;;15.12;78.36;98732.97;4991334;28;20028;-67
2021/06/16 03:03:27;;;;;;;3.60;2.20;;;;;;;15.00;78.41;98729.38;4992466;28;20031;-67
2021/06/16 03:05:56;;;;;;;6.05;2.80;;;;;;;14.93;79.20;98730.56;4987205;28;20284;-67
2021/06/16 03:08:23;;;;;;;8.68;2.90;;;;;;;14.96;79.36;98725.50;4990456;28;20029;-66
2021/06/16 03:10:48;;;;;;;4.70;2.90;;;;;;;14.95;79.21;98718.38;4990959;28;20026;-66
2021/06/16 03:13:15;;;;;;;4.57;2.70;;;;;;;14.68;79.95;98688.81;4991874;28;20113;-66
2021/06/16 03:15:43;;;;;;;6.78;2.85;;;;;;;14.87;79.50;98722.25;4992117;28;20030;-69
2021/06/16 03:18:11;;;;;;;5.80;2.88;;;;;;;14.90;79.65;98726.41;4986233;28;20114;-67
2021/06/16 03:20:39;;;;;;;4.88;3.10;;;;;;;14.91;79.77;98728.09;4973284;28;20094;-66
2021/06/16 03:23:06;;;;;;;4.78;3.05;;;;;;;14.85;80.25;98720.81;4978288;28;20033;-68
2021/06/16 03:25:32;;;;;;;4.30;3.45;;;;;;;14.84;79.76;98728.16;4994765;28;20057;-67
2021/06/16 03:27:58;;;;;;;6.15;2.70;;;;;;;14.85;79.99;98734.44;4995625;28;20034;-69
2021/06/16 03:30:24;;;;;;;7.47;3.20;;;;;;;14.87;79.63;98721.44;4995625;28;20034;-74
2021/06/16 03:32:52;;;;;;;5.93;3.35;;;;;;;14.76;79.49;98697.72;4994011;28;20041;-76
2021/06/16 03:35:18;;;;;;;9.30;3.72;;;;;;;14.89;79.95;98717.41;5002052;28;20128;-75
2021/06/16 03:37:45;;;;;;;9.95;3.38;;;;;;;14.82;79.58;98715.84;4995395;28;20026;-75
2021/06/16 03:40:12;;;;;;;5.75;3.72;;;;;;;14.99;79.26;98733.19;4998768;28;20089;-75
2021/06/16 03:42:39;;;;;;;5.53;3.67;;;;;;;14.96;79.26;98735.53;5009244;28;20488;-64
2021/06/16 03:45:07;;;;;;;6.90;3.08;;;;;;;15.06;79.15;98733.94;4992276;28;20034;-66
2021/06/16 03:47:34;;;;;;;15.18;3.70;;;;;;;14.95;79.10;98707.47;4994176;28;20428;-66
2021/06/16 03:50:02;;;;;;;4.25;3.00;;;;;;;15.18;78.39;98725.75;4994919;28;20433;-65
2021/06/16 03:52:29;;;;;;;4.68;3.13;;;;;;;15.24;78.39;98727.53;4995452;28;20022;-67
2021/06/16 03:54:55;;;;;;;4.53;2.70;;;;;;;15.24;77.63;98729.44;4995788;28;20129;-69
2021/06/16 03:57:22;;;;;;;6.53;3.25;;;;;;;15.27;78.15;98734.41;4995606;28;20062;-69
2021/06/16 03:59:51;;;;;;;5.70;3.00;;;;;;;15.18;78.29;98703.94;4994075;28;20058;-69
2021/06/16 04:02:18;;;;;;;5.82;2.95;;;;;;;15.33;77.71;98731.56;4995597;28;20022;-70
2021/06/16 04:04:44;;;;;;;3.47;2.90;;;;;;;15.34;77.38;98729.69;4994841;28;20109;-70
2021/06/16 04:07:14;;;;;;;5.72;2.78;;;;;;;15.17;77.34;98699.56;4994193;28;20481;-69
2021/06/16 04:09:41;;;;;;;4.50;2.88;;;;;;;15.12;78.10;98703.00;4996500;28;20117;-68
2021/06/16 04:12:07;;;;;;;5.85;3.33;;;;;;;15.36;77.69;98727.56;4995352;28;20038;-67
2021/06/16 04:14:33;;;;;;;6.63;3.20;;;;;;;15.42;77.39;98723.88;4993783;28;20485;-67
2021/06/16 04:16:59;;;;;;;5.80;3.05;;;;;;;15.51;76.93;98729.78;4997552;28;20033;-67
2021/06/16 04:19:24;;;;;;;7.43;3.35;;;;;;;15.56;76.91;98735.34;5013571;28;20033;-67
2021/06/16 04:21:50;;;;;;;7.18;3.28;;;;;;;15.65;76.49;98722.22;4995550;28;20057;-67
2021/06/16 04:24:15;;;;;;;5.93;3.38;;;;;;;15.73;76.24;98721.88;4998773;28;20033;-67
2021/06/16 04:26:40;;;;;;;7.57;3.50;;;;;;;15.89;75.83;98725.78;4995614;28;20062;-65
2021/06/16 04:29:06;;;;;;;5.10;3.45;;;;;;;15.99;75.85;98731.44;4991138;28;20041;-71
2021/06/16 04:31:34;;;;;;;6.43;3.13;;;;;;;15.98;75.56;98703.34;4992944;28;20093;-74
2021/06/16 04:33:59;;;;;;;8.68;3.25;;;;;;;15.95;75.01;98697.53;4996473;28;20022;-72
2021/06/16 04:36:24;;;;;;;8.25;3.45;;;;;;;16.15;75.07;98719.78;4993113;28;20045;-72
2021/06/16 04:38:50;;;;;;;7.00;3.40;;;;;;;16.08;75.01;98707.34;4998133;28;20454;-78
2021/06/16 04:41:15;;;;;;;6.05;3.53;;;;;;;16.14;74.79;98695.47;4996707;28;20112;-73
2021/06/16 04:43:40;;;;;;;9.43;3.70;;;;;;;16.33;74.67;98716.03;4994482;28;20405;-73
2021/06/16 04:46:06;;;;;;;7.38;3.10;;;;;;;16.36;73.99;98701.09;4994779;28;20062;-73
2021/06/16 04:48:31;;;;;;;9.23;3.13;;;;;;;16.53;73.24;98698.38;4994865;28;20030;-70
2021/06/16 04:50:56;;;;;;;5.47;3.10;;;;;;;16.59;73.00;98697.44;5003504;28;20149;-68
2021/06/16 04:53:22;;;;;;;6.32;3.42;;;;;;;16.79;72.79;98708.75;4990187;28;20738;-71
2021/06/16 04:55:48;;;;;;;4.00;2.80;;;;;;;17.11;72.57;98721.88;4993234;28;20027;-65
2021/06/16 04:58:13;;;;;;;6.47;3.28;;;;;;;17.26;72.20;98692.03;4979908;28;20038;-66
2021/06/16 05:00:39;;;;;;;4.90;3.20;;;;;;;17.48;70.99;98710.41;4975300;28;20441;-68
2021/06/16 05:03:05;;;;;;;5.07;3.38;;;;;;;17.50;69.92;98719.19;4991115;28;20031;-67
2021/06/16 05:05:30;;;;;;;6.10;3.20;;;;;;;17.44;69.97;98692.84;4993445;28;20366;-69
2021/06/16 05:07:56;;;;;;;5.00;2.97;;;;;;;17.64;69.64;98725.97;4983543;28;20477;-68
2021/06/16 05:10:22;;;;;;;9.13;3.70;;;;;;;17.82;68.83;98726.81;4981552;28;20560;-69
2021/06/16 05:12:47;;;;;;;4.07;3.10;;;;;;;18.22;67.59;98725.69;4983161;28;20027;-67
2021/06/16 05:15:14;;;;;;;5.90;3.58;;;;;;;18.25;67.05;98725.16;4983764;28;20031;-69
2021/06/16 05:17:40;;;;;;;5.55;3.67;;;;;;;18.45;67.07;98708.97;4984247;28;20076;-69
2021/06/16 05:20:08;;;;;;;4.80;3.38;;;;;;;18.56;66.63;98709.91;4982670;28;20042;-69
2021/06/16 05:22:34;;;;;;;8.27;3.50;;;;;;;18.61;65.88;98702.56;4983706;28;20480;-68
2021/06/16 05:25:01;;;;;;;5.68;3.10;;;;;;;18.77;65.91;98700.03;4984439;28;20034;-68
2021/06/16 05:27:26;;;;;;;8.68;3.42;;;;;;;18.99;65.03;98695.31;4987328;28;20030;-69
2021/06/16 05:29:53;;;;;;;6.60;3.72;;;;;;;19.08;65.61;98701.13;4984285;28;20031;-70
2021/06/16 05:32:19;;;;;;;6.65;3.83;;;;;;;19.35;64.21;98697.50;4984031;28;20037;-69
2021/06/16 05:34:45;;;;;;;8.18;3.92;;;;;;;19.39;63.84;98685.72;4991207;28;20492;-67
2021/06/16 05:37:10;;;;;;;12.68;3.25;;;;;;;19.65;64.28;98705.13;4993022;28;20030;-71
2021/06/16 05:39:36;;;;;;;9.45;3.55;;;;;;;19.92;62.92;98694.84;4987295;28;20489;-72
2021/06/16 05:42:02;;;;;;;8.13;3.72;;;;;;;20.00;61.83;98693.53;4990880;28;20057;-68
2021/06/16 05:44:27;;;;;;;8.18;3.67;;;;;;;20.01;60.91;98697.09;4991577;28;20108;-66
2021/06/16 05:46:53;;;;;;;9.38;3.20;;;;;;;20.13;61.02;98694.94;4990379;28;20515;-66
2021/06/16 05:49:18;;;;;;;6.43;3.33;;;;;;;20.48;61.20;98696.16;4993035;28;20036;-67
2021/06/16 05:51:43;;;;;;;12.35;4.10;;;;;;;20.84;60.73;98701.78;4988113;28;20065;-68
2021/06/16 05:54:12;;;;;;;10.75;3.88;;;;;;;20.97;61.28;98704.81;4979677;28;20022;-67
2021/06/16 05:56:38;;;;;;;6.25;4.00;;;;;;;21.21;60.96;98702.34;4995305;28;20483;-65
2021/06/16 05:59:04;;;;;;;6.15;3.67;;;;;;;21.40;60.00;98705.38;4987758;28;20409;-67
2021/06/16 06:01:31;;;;;;;5.10;3.50;;;;;;;21.11;58.26;98702.34;4990801;28;20106;-67
2021/06/16 06:03:56;;;;;;;5.68;3.30;;;;;;;21.57;57.57;98705.09;4990010;28;20384;-71
2021/06/16 06:06:21;;;;;;;9.45;3.90;;;;;;;21.63;58.76;98694.91;4999377;28;20030;-70
2021/06/16 06:08:47;;;;;;;7.00;3.40;;;;;;;21.94;58.83;98701.16;4980618;28;20109;-71
2021/06/16 06:11:12;;;;;;;8.57;3.75;;;;;;;21.75;55.22;98669.81;4972115;28;20053;-69
2021/06/16 06:13:37;;;;;;;7.32;3.72;;;;;;;22.20;53.93;98673.53;4973911;28;20027;-69
2021/06/16 06:16:03;;;;;;;8.00;3.92;;;;;;;22.38;54.20;98700.47;4990778;28;20026;-67
2021/06/16 06:18:28;;;;;;;9.00;4.00;;;;;;;22.71;53.42;98687.03;4989778;28;20448;-68
2021/06/16 06:20:54;;;;;;;10.32;4.30;;;;;;;22.71;53.49;98687.84;4987925;28;20037;-68
2021/06/16 06:23:19;;;;;;;6.28;4.00;;;;;;;22.61;54.03;98674.16;4991637;28;20022;-67
2021/06/16 06:25:45;;;;;;;5.50;3.78;;;;;;;22.89;53.34;98697.38;4990974;28;20054;-68
2021/06/16 06:28:10;;;;;;;8.65;3.85;;;;;;;23.48;52.37;98692.81;4992412;28;20030;-67
2021/06/16 06:30:35;;;;;;;5.53;2.80;;;;;;;23.93;51.00;98685.16;4991991;28;20023;-67
2021/06/16 06:33:01;;;;;;;6.40;2.95;;;;;;;24.17;50.63;98682.38;4990510;28;20030;-67
2021/06/16 06:35:26;;;;;;;11.30;3.45;;;;;;;23.76;51.10;98669.06;5001587;28;20048;-67
2021/06/16 06:37:52;;;;;;;5.05;2.95;;;;;;;24.41;50.46;98687.06;4992317;28;20461;-67
2021/06/16 06:40:17;;;;;;;4.80;2.67;;;;;;;24.54;49.81;98688.31;4990443;28;20101;-67
2021/06/16 06:42:42;;;;;;;5.43;3.00;;;;;;;24.95;49.95;98688.53;4992175;28;20117;-67
2021/06/16 06:45:08;;;;;;;6.60;3.17;;;;;;;25.30;49.22;98695.44;4992359;28;20034;-68
2021/06/16 06:47:34;;;;;;;8.23;2.92;;;;;;;25.27;49.36;98682.22;4992109;28;20054;-69
2021/06/16 06:49:59;;;;;;;4.95;2.72;;;;;;;25.56;48.38;98662.56;4990856;28;20056;-69
2021/06/16 06:52:25;;;;;;;5.82;3.00;;;;;;;25.93;47.80;98690.47;4991537;28;20034;-68
2021/06/16 06:54:50;;;;;;;6.70;3.03;;;;;;;26.37;46.51;98689.81;4991439;28;20058;-69
2021/06/16 06:57:16;;;;;;;8.95;2.72;;;;;;;26.13;47.36;98665.09;4992880;28;20038;-69
2021/06/16 06:59:41;;;;;;;6.88;2.58;;;;;;;27.05;47.08;98687.22;4991153;28;20048;-69
2021/06/16 07:02:07;;;;;;;5.80;2.75;;;;;;;28.12;43.62;98676.09;4989998;28;20077;-69
2021/06/16 07:04:32;;;;;;;8.23;2.47;;;;;;;28.62;42.81;98672.94;4991091;28;20037;-69
2021/06/16 07:06:58;;;;;;;7.38;2.22;;;;;;;29.27;41.96;98659.19;4991969;28;20112;-69
2021/06/16 07:09:26;;;;;;;6.68;2.42;;;;;;;30.99;39.85;98663.44;4991933;28;20030;-69
2021/06/16 07:11:52;;;;;;;6.05;2.25;;;;;;;31.92;38.05;98663.97;4991900;28;20031;-69
2021/06/16 07:14:18;;;;;;;10.70;2.00;;;;;;;33.05;34.54;98661.53;4991377;28;20109;-69
2021/06/16 07:16:43;;;;;;;7.03;2.60;;;;;;;33.00;34.16;98661.75;4991856;28;20049;-69
2021/06/16 07:19:09;;;;;;;6.93;2.42;;;;;;;34.47;32.64;98660.84;4990509;28;20030;-69
2021/06/16 07:21:34;;;;;;;6.20;2.20;;;;;;;33.79;33.60;98659.16;4992210;28;20034;-68
2021/06/16 07:24:00;;;;;;;8.55;2.28;;;;;;;34.74;33.02;98658.25;4991644;28;20054;-69
2021/06/16 07:26:25;;;;;;;4.40;2.38;;;;;;;35.39;32.50;98658.41;4989771;28;20100;-69
2021/06/16 07:28:51;;;;;;;4.95;2.50;;;;;;;35.43;31.55;98633.97;4991317;28;20042;-69
2021/06/16 07:31:16;;;;;;;2.95;2.10;;;;;;;36.29;31.46;98654.34;4991251;28;20026;-69
2021/06/16 07:33:42;;;;;;;4.75;2.15;;;;;;;35.73;31.50;98661.47;4991935;28;20024;-70
2021/06/16 07:36:07;;;;;;;3.05;1.90;;;;;;;36.18;31.38;98662.66;4992362;28;20034;-69
2021/06/16 07:38:33;;;;;;;4.78;2.20;;;;;;;35.77;30.64;98637.84;4991992;28;20038;-69
2021/06/16 07:40:58;;;;;;;4.93;2.05;;;;;;;37.55;30.08;98649.22;4989179;28;20027;-69
2021/06/16 07:43:24;;;;;;;5.20;1.73;;;;;;;37.18;30.18;98652.81;4991754;28;20053;-69
2021/06/16 07:45:49;;;;;;;2.10;1.70;;;;;;;37.04;30.16;98663.91;4991422;28;20149;-69
2021/06/16 07:48:14;;;;;;;8.85;2.20;;;;;;;36.46;30.68;98653.81;4991707;28;20077;-69
2021/06/16 07:50:42;;;;;;;4.50;1.88;;;;;;;37.18;30.71;98652.00;4991259;28;20034;-71
2021/06/16 07:53:08;;;;;;;8.50;1.98;;;;;;;36.66;31.25;98648.09;4990800;28;20046;-69
2021/06/16 07:55:34;;;;;;;6.22;1.90;;;;;;;37.43;29.69;98646.63;4990873;28;20062;-70
2021/06/16 07:57:59;;;;;;;6.22;2.25;;;;;;;37.55;28.76;98645.59;4989344;28;20023;-69
2021/06/16 08:00:25;;;;;;;4.70;2.08;;;;;;;37.78;28.91;98639.72;4990236;28;20030;-69
2021/06/16 08:02:50;;;;;;;7.32;1.98;;;;;;;38.35;27.61;98641.00;4989978;28;20030;-70
2021/06/16 08:05:16;;;;;;;3.85;2.10;;;;;;;38.61;27.33;98641.22;4989208;28;20072;-69
2021/06/16 08:07:44;;;;;;;6.75;2.17;;;;;;;39.41;27.64;98647.66;4991444;28;20116;-70
2021/06/16 08:10:10;;;;;;;;;;;;;;;40.36;26.72;98635.19;4991705;28;20053;-69
2021/06/16 08:12:35;;;;;;;5.30;1.90;;;;;;;40.03;27.14;98640.03;4992006;28;20292;-72
2021/06/16 08:15:03;;;;;;;5.75;2.00;;;;;;;40.07;26.13;98640.84;4995514;28;20444;-71
2021/06/16 08:17:28;;;;;;;9.05;2.03;;;;;;;39.51;27.32;98637.56;4997259;28;20026;-70
2021/06/16 08:19:53;;;;;;;2.95;1.88;;;;;;;40.05;26.43;98626.28;4995723;28;20041;-71
2021/06/16 08:22:19;;;;;;;6.72;1.98;;;;;;;40.09;25.79;98621.41;4990697;28;20030;-71
2021/06/16 08:24:44;;;;;;;5.53;1.80;;;;;;;40.86;25.73;98630.19;4994657;28;20060;-71
2021/06/16 08:27:10;;;;;;;3.20;1.70;;;;;;;40.47;25.40;98639.59;4995077;28;20026;-71
2021/06/16 08:29:36;;;;;;;2.60;1.85;;;;;;;40.59;25.46;98621.34;4994446;28;20093;-71
2021/06/16 08:32:01;;;;;;;4.45;2.10;;;;;;;39.93;25.57;98618.16;4994817;28;20045;-72
2021/06/16 08:34:27;;;;;;;4.03;1.73;;;;;;;40.28;25.56;98620.19;4994149;28;20030;-72
2021/06/16 08:36:52;;;;;;;4.70;1.85;;;;;;;39.94;27.10;98625.47;4993032;28;20022;-72
2021/06/16 08:39:17;;;;;;;5.32;1.77;;;;;;;40.52;25.12;98601.50;4995124;28;20081;-72
2021/06/16 08:41:43;;;;;;;4.30;1.77;;;;;;;41.00;25.04;98615.13;4994666;28;20084;-71
2021/06/16 08:44:09;;;;;;;5.65;1.73;;;;;;;41.42;24.44;98610.44;4997801;28;20085;-72
2021/06/16 08:46:35;;;;;;;4.25;1.73;;;;;;;41.76;24.31;98598.44;4995172;28;20563;-71
2021/06/16 08:49:05;;;;;;;4.53;1.63;;;;;;;41.32;24.54;98608.47;4994562;28;20101;-71
2021/06/16 08:51:31;;;;;;;2.42;1.38;;;;;;;40.56;23.63;98607.16;4991894;28;20117;-72
2021/06/16 08:53:56;;;;;;;4.88;1.80;;;;;;;40.49;23.96;98605.16;4994538;28;20097;-71
2021/06/16 08:56:21;;;;;;;4.72;1.52;;;;;;;41.18;24.06;98584.63;4993941;28;20018;-71
2021/06/16 08:58:47;;;;;;;4.65;1.75;;;;;;;41.13;22.41;98596.41;4994731;28;20069;-71
2021/06/16 09:01:12;;;;;;;3.72;1.48;;;;;;;41.03;21.65;98602.13;4993681;28;20018;-71
2021/06/16 09:03:38;;;;;;;5.45;1.67;;;;;;;41.74;21.49;98598.88;4992438;28;20034;-71
2021/06/16 09:06:06;;;;;;;5.10;2.08;;;;;;;41.37;21.70;98605.19;4993960;28;20412;-71
2021/06/16 09:08:32;;;;;;;3.53;1.50;;;;;;;41.16;21.21;98603.31;5009434;23;20046;-72
2021/06/16 09:10:57;;;;;;;2.38;1.55;;;;;;;41.74;21.88;98592.38;4994400;28;20084;-72
2021/06/16 09:13:36;;;;;;;3.70;1.38;;;;;;;41.88;20.54;98594.31;4994420;28;20387;-72
2021/06/16 09:16:21;;;;;;;5.68;1.55;;;;;;;41.89;20.33;98596.72;4994514;28;20026;-72
2021/06/16 09:18:47;;;;;;;3.33;1.58;;;;;;;42.90;19.80;98600.16;4989673;28;20085;-72
2021/06/16 09:21:12;;;;;;;3.03;1.33;;;;;;;42.59;19.90;98601.34;4974807;28;20027;-72
2021/06/16 09:23:41;;;;;;;2.40;1.30;;;;;;;41.58;20.57;98602.25;4987194;28;20058;-72
2021/06/16 09:26:10;;;;;;;3.45;1.67;;;;;;;41.69;21.32;98595.69;4994656;28;20034;-73
2021/06/16 09:28:39;;;;;;;3.15;1.85;;;;;;;41.23;21.27;98596.78;4994278;28;20029;-72
2021/06/16 09:31:04;;;;;;;;;;;;;;;41.65;20.78;98598.53;4994733;28;20386;-72
2021/06/16 09:33:30;;;;;;;9.27;1.77;;;;;;;41.72;21.09;98589.16;4992996;28;19917;-72
2021/06/16 09:35:55;;;;;;;2.38;1.42;;;;;;;40.30;22.36;98601.56;4993924;28;20030;-72
2021/06/16 09:38:23;;;;;;;3.72;1.70;;;;;;;40.84;21.59;98594.94;4992743;28;20041;-72
2021/06/16 09:40:49;;;;;;;3.90;1.42;;;;;;;40.36;22.30;98599.13;4982762;28;20022;-72
2021/06/16 09:43:17;;;;;;;7.25;2.10;;;;;;;38.67;23.52;98588.72;4990930;28;20045;-72
2021/06/16 09:45:45;;;;;;;5.50;2.85;;;;;;;39.38;23.12;98597.50;4993024;28;20049;-73
2021/06/16 09:48:29;;;;;;;3.90;1.50;;;;;;;39.22;23.47;98592.19;4993242;28;20235;-73
2021/06/16 09:51:11;;;;;;;3.03;1.80;;;;;;;39.38;22.72;98589.00;4993845;28;20105;-73
2021/06/16 09:53:59;;;;;;;6.25;1.45;;;;;;;40.45;21.72;98590.19;4993200;28;20116;-72
2021/06/16 09:56:30;;;;;;;2.30;1.58;;;;;;;40.47;21.17;98582.88;4991718;28;20026;-72
2021/06/16 09:58:55;;;;;;;4.25;1.30;;;;;;;39.65;22.50;98585.78;4993479;28;20494;-72
2021/06/16 10:01:45;;;;;;;5.70;1.90;;;;;;;38.31;23.72;98583.69;4986355;28;20160;-72
2021/06/16 10:04:29;;;;;;;3.15;1.80;;;;;;;39.79;22.04;98582.97;4994269;28;20436;-73
2021/06/16 10:07:27;;;;;;;5.10;1.80;;;;;;;38.63;23.04;98585.09;4993687;28;20084;-73
2021/06/16 10:10:02;;;;;;;5.00;1.70;;;;;;;38.24;23.09;98580.00;4993960;28;20033;-72
2021/06/16 10:12:33;;;;;;;2.95;1.70;;;;;;;37.39;24.42;98575.22;4992328;28;20026;-72
2021/06/16 10:15:00;;;;;;;2.15;1.52;;;;;;;38.78;23.11;98581.09;4992773;28;20061;-72
2021/06/16 10:17:26;;;;;;;5.55;1.65;;;;;;;38.77;22.90;98587.97;4975929;28;20027;-73
2021/06/16 10:19:52;;;;;;;7.50;2.42;;;;;;;37.92;23.98;98572.09;4992969;28;20034;-72
2021/06/16 10:22:18;;;;;;;3.28;1.55;;;;;;;38.57;23.05;98570.53;4993656;28;20030;-73
2021/06/16 10:24:44;;;;;;;2.10;1.30;;;;;;;39.85;21.39;98572.03;4993178;28;20037;-74
2021/06/16 10:27:16;;;;;;;5.38;1.40;;;;;;;40.44;21.89;98565.88;4993201;28;20030;-73
2021/06/16 10:29:43;;;;;;;3.88;1.95;;;;;;;41.00;21.20;98566.06;4991582;28;20038;-73
2021/06/16 10:32:10;;;;;;;3.30;1.60;;;;;;;40.59;21.41;98564.63;4993208;28;20026;-73
2021/06/16 10:34:56;;;;;;;3.28;1.23;;;;;;;40.30;22.05;98559.06;4981489;28;20041;-73
2021/06/16 10:37:35;;;;;;;5.82;1.58;;;;;;;39.97;21.36;98568.00;4992439;28;20042;-73
2021/06/16 10:40:12;;;;;;;2.65;1.45;;;;;;;40.46;20.76;98564.25;4991501;28;20480;-72
2021/06/16 10:43:01;;;;;;;3.67;1.48;;;;;;;39.17;21.83;98567.09;4992711;28;20110;-72
2021/06/16 10:45:29;;;;;;;3.35;1.60;;;;;;;38.72;21.62;98560.06;4993534;28;20018;-72
2021/06/16 10:47:56;;;;;;;2.58;1.50;;;;;;;39.39;22.65;98556.66;4992735;28;20030;-72
2021/06/16 10:50:21;;;;;;;3.22;1.50;;;;;;;39.04;23.20;98551.72;4982395;28;20126;-72
2021/06/16 10:53:04;;;;;;;2.08;1.60;;;;;;;39.43;23.54;98551.81;4992037;28;20022;-72
2021/06/16 10:55:54;;;;;;;3.13;1.50;;;;;;;40.79;21.64;98544.28;4991993;28;20026;-72
2021/06/16 10:58:30;;;;;;;2.25;1.38;;;;;;;41.70;19.41;98537.63;4991709;28;20109;-72
2021/06/16 11:01:10;;;;;;;4.90;1.70;;;;;;;40.01;21.70;98541.28;4992831;28;20036;-72
2021/06/16 11:03:48;;;;;;;2.80;1.27;;;;;;;39.90;22.07;98545.34;4992581;28;20072;-72
2021/06/16 11:06:31;;;;;;;3.70;1.38;;;;;;;39.91;20.92;98539.28;4992241;28;20458;-71
2021/06/16 11:08:57;;;;;;;2.35;1.00;;;;;;;40.68;19.35;98530.16;4988196;28;20035;-72
2021/06/16 11:11:23;;;;;;;1.88;1.30;;;;;;;40.78;19.52;98540.66;4987559;28;20435;-71
2021/06/16 11:13:50;;;;;;;3.22;1.40;;;;;;;40.83;20.26;98539.44;4991542;28;20041;-71
2021/06/16 11:16:38;;;;;;;3.25;1.63;;;;;;;40.70;20.23;98537.03;4991306;28;21933;-71
2021/06/16 11:19:24;;;;;;;4.60;1.60;;;;;;;37.87;22.35;98530.09;4990230;28;20018;-78
2021/06/16 11:21:54;;;;;;;2.30;1.58;;;;;;;39.93;20.51;98527.50;4993060;28;20030;-77
2021/06/16 11:24:20;;;;;;;2.42;1.30;;;;;;;40.38;20.38;98527.84;4996458;28;20030;-85
2021/06/16 11:26:47;;;;;;;4.13;1.40;;;;;;;40.84;20.51;98516.28;4999149;28;20049;-77
2021/06/16 11:29:50;;;;;;;1.98;1.40;;;;;;;40.33;19.84;98520.56;4993230;28;21342;-78
2021/06/16 11:32:15;;;;;;;3.65;1.23;;;;;;;41.65;19.90;98509.69;4987274;28;20112;-75
2021/06/16 11:34:48;;;;;;;1.85;1.20;;;;;;;42.94;17.98;98513.91;4997083;28;20113;-76
2021/06/16 11:37:52;;;;;;;3.05;1.30;;;;;;;41.69;20.45;98501.94;4988034;28;20162;-70